createdAt,value
2022-11-02T00:18:12.408Z,48.22
2022-11-02T06:14:25.194Z,48.30
2022-11-02T06:16:54.495Z,48.00
2022-11-02T06:19:38.335Z,47.99
2022-11-02T06:22:07.093Z,48.28
2022-11-02T06:24:35.764Z,48.32
2022-11-02T06:36:03.801Z,47.73
2022-11-02T07:06:17.252Z,48.06
2022-11-02T07:08:45.232Z,47.87
2022-11-02T07:11:22.302Z,47.94
2022-11-02T07:13:50.833Z,48.05
2022-11-02T07:16:18.730Z,47.71
2022-11-02T07:18:46.742Z,47.63
2022-11-02T07:21:16.075Z,47.78
2022-11-02T07:23:44.130Z,47.82
2022-11-02T07:32:28.052Z,47.63
2022-11-02T07:46:24.883Z,47.10
2022-11-02T07:48:52.508Z,47.04
2022-11-02T07:51:20.650Z,46.91
2022-11-02T07:53:52.977Z,46.77
2022-11-02T07:56:21.438Z,46.58
2022-11-02T07:58:53.211Z,46.34
2022-11-02T08:01:20.964Z,46.45
2022-11-02T08:03:50.990Z,46.13
2022-11-02T08:06:20.751Z,46.17
2022-11-02T08:08:51.104Z,45.88
2022-11-02T08:11:19.609Z,45.16
2022-11-02T08:13:48.038Z,45.13
2022-11-02T08:16:16.449Z,44.79
2022-11-02T08:22:55.131Z,43.89
2022-11-02T08:47:06.785Z,42.20
2022-11-02T08:49:37.698Z,42.24
2022-11-02T08:52:07.475Z,40.95
2022-11-02T08:54:35.393Z,41.16
2022-11-02T08:57:03.690Z,40.85
2022-11-02T08:59:32.299Z,40.75
2022-11-02T09:02:01.585Z,39.99
2022-11-02T09:04:29.742Z,38.92
2022-11-02T09:06:58.265Z,37.71
2022-11-02T09:09:27.790Z,36.77
2022-11-02T09:11:55.968Z,36.54
2022-11-02T09:14:23.922Z,35.89
2022-11-02T09:16:52.061Z,36.36
2022-11-02T09:19:20.258Z,36.14
2022-11-02T09:21:49.966Z,35.98
2022-11-02T09:24:18.012Z,36.33
2022-11-02T09:26:48.800Z,36.03
2022-11-02T09:29:17.213Z,36.33
2022-11-02T09:31:46.004Z,36.04
2022-11-02T09:34:14.061Z,35.58
2022-11-02T09:36:42.379Z,35.67
2022-11-02T09:39:10.318Z,35.07
2022-11-02T09:41:39.715Z,34.51
2022-11-02T09:44:11.088Z,34.73
2022-11-02T09:46:40.440Z,34.69
2022-11-02T09:49:12.585Z,34.48
2022-11-02T09:51:41.533Z,35.22
2022-11-02T09:54:13.253Z,35.66
2022-11-02T09:56:43.960Z,36.64
2022-11-02T09:59:15.794Z,36.15
2022-11-02T10:01:55.727Z,36.33
2022-11-02T10:04:49.555Z,35.54
2022-11-02T10:07:23.288Z,34.97
2022-11-02T10:09:54.193Z,34.87
2022-11-02T10:23:13.272Z,32.44
2022-11-02T10:25:41.262Z,33.01
2022-11-02T10:30:52.689Z,33.55
2022-11-02T10:33:22.050Z,33.48
2022-11-02T10:38:45.844Z,31.16
2022-11-02T10:41:24.061Z,29.99
2022-11-02T10:44:01.573Z,27.80
2022-11-02T10:46:38.218Z,25.83
2022-11-02T10:49:10.780Z,24.07
2022-11-02T10:51:38.701Z,22.69
2022-11-02T10:54:11.739Z,22.07
2022-11-02T10:56:39.477Z,21.24
2022-11-02T10:59:11.453Z,21.84
2022-11-02T11:01:39.708Z,22.89
2022-11-02T11:04:12.114Z,22.65
2022-11-02T11:06:41.492Z,21.74
2022-11-02T11:09:17.059Z,20.24
2022-11-02T11:11:54.268Z,18.75
2022-11-02T11:20:05.891Z,16.93
2022-11-02T11:22:37.198Z,16.10
2022-11-02T11:25:27.040Z,15.29
2022-11-02T11:27:56.223Z,15.02
2022-11-02T11:30:54.001Z,14.04
2022-11-02T11:33:16.415Z,13.65
2022-11-02T11:35:44.113Z,15.21
2022-11-02T11:38:16.620Z,14.47
2022-11-02T11:40:48.783Z,16.31
2022-11-02T11:43:18.057Z,16.64
2022-11-02T11:45:56.581Z,17.00
2022-11-02T11:48:32.173Z,17.70
2022-11-02T11:51:04.320Z,18.30
2022-11-02T11:53:32.335Z,18.87
2022-11-02T11:56:01.964Z,19.83
2022-11-02T11:58:30.174Z,20.17
2022-11-02T12:01:10.603Z,20.77
2022-11-02T12:03:55.595Z,20.37
2022-11-02T12:06:27.907Z,20.10
2022-11-02T12:09:01.601Z,19.58
2022-11-02T12:11:42.079Z,20.73
2022-11-02T12:14:14.726Z,21.12
2022-11-02T12:17:28.517Z,20.75
2022-11-02T12:20:04.676Z,19.02
2022-11-02T12:22:38.310Z,19.61
2022-11-02T12:25:16.454Z,20.04
2022-11-02T12:27:49.496Z,21.12
2022-11-02T12:30:18.768Z,21.38
2022-11-02T12:32:56.754Z,21.69
2022-11-02T12:35:30.471Z,23.19
2022-11-02T12:38:06.762Z,23.66
2022-11-02T12:40:43.821Z,24.27
2022-11-02T12:43:25.940Z,25.04
2022-11-02T12:45:57.640Z,26.05
2022-11-02T12:48:30.064Z,26.15
2022-11-02T12:51:00.023Z,26.63
2022-11-02T12:53:36.279Z,27.51
2022-11-02T12:56:05.369Z,28.05
2022-11-02T12:58:37.129Z,28.48
2022-11-02T13:01:13.495Z,29.03
2022-11-02T13:03:46.464Z,28.68
2022-11-02T13:06:16.905Z,29.58
2022-11-02T13:08:47.353Z,29.62
2022-11-02T13:11:17.166Z,29.81
2022-11-02T13:13:47.939Z,29.98
2022-11-02T13:16:16.430Z,30.00
2022-11-02T13:18:46.063Z,30.27
2022-11-02T13:21:14.055Z,30.68
2022-11-02T13:23:44.689Z,30.75
2022-11-02T13:26:13.896Z,30.68
2022-11-02T13:28:43.354Z,30.81
2022-11-02T13:31:15.457Z,31.16
2022-11-02T13:33:45.776Z,31.20
2022-11-02T13:36:13.668Z,32.02
2022-11-02T13:38:45.633Z,31.49
2022-11-02T13:44:02.343Z,31.55
2022-11-02T13:46:40.036Z,32.39
2022-11-02T13:49:08.091Z,32.57
2022-11-02T13:51:37.520Z,32.49
2022-11-02T13:54:14.091Z,33.00
2022-11-02T13:56:41.803Z,32.92
2022-11-02T13:59:10.236Z,33.26
2022-11-02T14:01:40.482Z,33.24
2022-11-02T14:04:08.955Z,33.12
2022-11-02T14:06:46.201Z,33.58
2022-11-02T14:09:23.270Z,33.89
2022-11-02T14:11:51.873Z,34.04
2022-11-02T14:14:22.409Z,34.26
2022-11-02T14:17:14.073Z,34.48
2022-11-02T14:20:04.280Z,34.89
2022-11-02T14:22:33.299Z,34.50
2022-11-02T14:25:17.907Z,34.65
2022-11-02T14:27:45.854Z,35.13
2022-11-02T14:30:55.095Z,34.70
2022-11-02T14:33:53.855Z,35.00
2022-11-02T14:36:33.511Z,35.11
2022-11-02T14:39:09.272Z,34.85
2022-11-02T15:53:23.267Z,37.46
2022-11-02T15:55:57.060Z,37.53
2022-11-02T15:58:30.295Z,37.86
2022-11-02T16:01:13.082Z,37.89
2022-11-02T16:03:45.035Z,38.16
2022-11-02T16:06:13.004Z,38.23
2022-11-02T16:08:44.127Z,38.55
2022-11-02T16:11:18.284Z,38.84
2022-11-02T16:14:03.490Z,38.75
2022-11-02T16:16:35.991Z,38.90
2022-11-02T16:19:04.043Z,39.51
2022-11-02T16:21:31.908Z,39.48
2022-11-02T16:24:01.160Z,39.54
2022-11-02T16:26:29.832Z,39.42
2022-11-02T16:28:58.684Z,39.97
2022-11-02T16:31:30.826Z,40.03
2022-11-02T16:33:59.448Z,40.46
2022-11-02T16:36:27.856Z,40.41
2022-11-02T16:38:58.997Z,40.49
2022-11-02T16:41:29.129Z,40.68
2022-11-02T16:43:57.459Z,40.87
2022-11-02T16:46:30.355Z,40.81
2022-11-02T16:49:16.404Z,41.04
2022-11-02T16:51:49.932Z,41.11
2022-11-02T16:54:27.583Z,40.82
2022-11-02T16:56:58.109Z,40.75
2022-11-02T17:10:31.420Z,40.79
2022-11-02T17:27:39.350Z,41.15
2022-11-02T17:30:50.443Z,41.17
2022-11-02T17:33:25.475Z,41.18
2022-11-02T17:36:17.193Z,41.56
2022-11-02T17:38:45.707Z,41.74
2022-11-02T17:51:32.748Z,42.81
2022-11-02T17:54:38.957Z,42.38
2022-11-02T18:00:01.591Z,42.57
2022-11-02T18:11:08.834Z,42.80
2022-11-02T18:17:52.181Z,42.97
2022-11-02T18:20:52.893Z,42.79
2022-11-02T19:54:21.205Z,45.25
2022-11-02T19:56:48.819Z,45.30
2022-11-02T19:59:16.487Z,45.27
2022-11-02T20:01:44.616Z,45.54
2022-11-02T20:04:12.491Z,45.67
2022-11-02T20:06:41.058Z,45.87
2022-11-02T20:09:10.989Z,45.93
2022-11-02T20:11:44.404Z,46.06
2022-11-02T20:14:12.361Z,45.95
2022-11-02T20:16:40.141Z,45.80
2022-11-02T20:19:08.922Z,45.51
2022-11-02T20:21:41.581Z,45.89
2022-11-02T20:24:11.086Z,45.87
2022-11-02T20:26:40.962Z,45.76
2022-11-02T20:29:10.956Z,46.20
2022-11-02T20:31:41.874Z,46.00
2022-11-02T20:34:10.247Z,45.72
2022-11-02T20:36:39.313Z,46.27
2022-11-02T20:39:07.830Z,46.00
2022-11-02T20:41:35.521Z,46.25
2022-11-02T20:44:04.891Z,45.98
2022-11-02T20:46:38.350Z,46.11
2022-11-02T20:49:20.627Z,46.08
2022-11-02T20:51:49.698Z,45.88
2022-11-02T20:54:19.607Z,45.90
2022-11-02T20:56:57.436Z,46.13
2022-11-02T20:59:26.862Z,46.27
2022-11-02T21:01:54.978Z,46.26
2022-11-02T21:04:22.890Z,45.96
2022-11-02T21:06:50.931Z,46.41
2022-11-02T21:09:18.911Z,45.75
2022-11-02T21:12:04.137Z,46.07
2022-11-02T21:14:33.354Z,46.36
2022-11-02T21:17:02.695Z,45.87
2022-11-02T21:19:30.663Z,45.89
2022-11-02T21:22:00.227Z,45.92
2022-11-02T21:24:28.604Z,45.93
2022-11-02T21:26:56.574Z,46.06
2022-11-02T21:29:24.385Z,45.98
2022-11-02T21:31:53.731Z,45.87
2022-11-02T21:34:21.701Z,46.01
2022-11-02T21:36:49.610Z,45.85
2022-11-02T21:39:17.496Z,46.08
2022-11-02T21:41:45.258Z,46.05
2022-11-02T21:44:13.107Z,45.94
2022-11-02T21:46:40.969Z,45.87
2022-11-02T21:49:10.464Z,46.12
2022-11-02T21:51:38.570Z,46.22
2022-11-02T21:54:06.455Z,46.51
2022-11-02T21:56:35.998Z,46.39
2022-11-02T21:59:05.267Z,46.47
2022-11-02T22:01:45.571Z,46.10
2022-11-02T22:04:15.908Z,46.36
2022-11-02T22:06:43.894Z,46.35
2022-11-02T22:09:12.940Z,46.52
2022-11-02T22:11:40.758Z,46.44
2022-11-02T22:14:08.582Z,46.78
2022-11-02T22:16:37.576Z,46.31
2022-11-02T22:19:06.162Z,46.51
2022-11-02T22:21:36.256Z,46.65
2022-11-02T22:24:04.715Z,46.85
2022-11-02T22:26:32.890Z,46.74
2022-11-02T22:29:01.110Z,46.95
2022-11-02T22:31:29.795Z,46.46
2022-11-02T22:33:58.676Z,47.14
2022-11-02T22:36:28.194Z,46.91
2022-11-02T22:38:57.231Z,47.00
2022-11-02T22:41:25.697Z,46.81
2022-11-02T22:43:54.726Z,46.96
2022-11-02T22:46:22.501Z,47.10
2022-11-02T22:48:51.462Z,46.85
2022-11-02T22:51:20.952Z,46.56
2022-11-02T22:53:48.867Z,46.44
2022-11-02T22:56:19.245Z,46.67
2022-11-02T22:58:47.436Z,47.03
2022-11-02T23:01:16.564Z,46.89
2022-11-02T23:03:44.455Z,47.15
2022-11-02T23:06:12.657Z,47.06
2022-11-02T23:08:41.382Z,46.88
2022-11-02T23:11:22.614Z,46.66
2022-11-02T23:13:53.147Z,46.90
2022-11-02T23:16:24.593Z,47.09
2022-11-02T23:19:11.700Z,47.20
2022-11-02T23:21:39.665Z,46.73
2022-11-02T23:24:25.811Z,46.80
2022-11-02T23:26:53.800Z,46.91
2022-11-02T23:29:40.583Z,46.99
2022-11-02T23:32:27.480Z,47.71
2022-11-02T23:35:16.638Z,47.80
2022-11-02T23:37:44.910Z,47.81
2022-11-02T23:40:13.924Z,48.06
2022-11-02T23:42:41.842Z,48.07
2022-11-02T23:45:12.007Z,48.63
2022-11-02T23:47:58.109Z,48.39
2022-11-02T23:50:46.085Z,48.72
2022-11-02T23:53:32.500Z,49.19
2022-11-02T23:56:17.914Z,49.36
2022-11-02T23:58:45.842Z,49.46
